Time;durP1;ratioP1;P1;durP2;ratioP2;P2;SDS_P1;SDS_P2;PMS_P1;PMS_P2;Temp;Humidity;BMP_temperature;BMP_pressure;BME280_temperature;BME280_humidity;BME280_pressure;Samples;Min_cycle;Max_cycle;Signal;HPM_P1;HPM_P2
2023/10/01 00:00:52;;;;;;;20.63;11.32;;;;;;;;;;2096108;28;20078;-73
2023/10/01 00:02:13;;;;;;;23.75;12.52;;;;;;;;;;2097458;28;20028;-73
2023/10/01 00:03:34;;;;;;;18.80;12.90;;;;;;;;;;2095816;28;20021;-73
2023/10/01 00:04:55;;;;;;;22.52;12.60;;;;;;;;;;2091885;28;20036;-73
2023/10/01 00:06:16;;;;;;;23.40;12.98;;;;;;;;;;2096203;28;20484;-73
2023/10/01 00:07:37;;;;;;;21.40;12.32;;;;;;;;;;2102457;28;20032;-73
2023/10/01 00:08:58;;;;;;;22.08;13.38;;;;;;;;;;2090766;28;20094;-74
2023/10/01 00:10:20;;;;;;;22.45;12.23;;;;;;;;;;2101459;28;20028;-73
2023/10/01 00:11:41;;;;;;;20.00;11.85;;;;;;;;;;2099217;28;20048;-73
2023/10/01 00:13:02;;;;;;;21.73;12.88;;;;;;;;;;2097543;28;20028;-73
2023/10/01 00:14:23;;;;;;;18.40;12.02;;;;;;;;;;2097601;28;20041;-74
2023/10/01 00:15:44;;;;;;;20.00;12.25;;;;;;;;;;2097563;28;20419;-73
2023/10/01 00:17:05;;;;;;;19.70;11.90;;;;;;;;;;2097152;28;20040;-73
2023/10/01 00:18:26;;;;;;;21.50;12.18;;;;;;;;;;2095415;28;20041;-73
2023/10/01 00:19:47;;;;;;;19.80;12.50;;;;;;;;;;2088263;28;20106;-73
2023/10/01 00:21:08;;;;;;;21.25;11.85;;;;;;;;;;2101348;28;20031;-72
2023/10/01 00:22:33;;;;;;;22.35;12.52;;;;;;;;;;2093333;28;20033;-74
2023/10/01 00:23:54;;;;;;;20.80;11.35;;;;;;;;;;2095355;28;20084;-72
2023/10/01 00:25:15;;;;;;;23.80;12.52;;;;;;;;;;2100561;28;20036;-72
2023/10/01 00:26:36;;;;;;;19.00;12.25;;;;;;;;;;2096170;28;20036;-72
2023/10/01 00:28:01;;;;;;;21.88;12.18;;;;;;;;;;2088440;28;20079;-73
2023/10/01 00:29:22;;;;;;;22.55;12.65;;;;;;;;;;2097214;28;20047;-72
2023/10/01 00:30:43;;;;;;;19.00;12.10;;;;;;;;;;2102386;28;20507;-72
2023/10/01 00:32:04;;;;;;;21.80;12.50;;;;;;;;;;2096516;28;20029;-72
2023/10/01 00:33:25;;;;;;;23.35;12.38;;;;;;;;;;2096294;28;20024;-72
2023/10/01 00:34:46;;;;;;;22.63;12.27;;;;;;;;;;2101156;28;20115;-72
2023/10/01 00:36:07;;;;;;;24.70;12.73;;;;;;;;;;2108683;28;20048;-72
2023/10/01 00:37:28;;;;;;;22.00;12.63;;;;;;;;;;2088669;28;20091;-72
2023/10/01 00:38:49;;;;;;;21.33;12.25;;;;;;;;;;2095017;28;20098;-72
2023/10/01 00:40:11;;;;;;;20.17;12.73;;;;;;;;;;2091511;28;20036;-72
2023/10/01 00:41:33;;;;;;;19.35;12.57;;;;;;;;;;2094056;28;20365;-72
2023/10/01 00:42:54;;;;;;;22.85;13.75;;;;;;;;;;2093039;28;20024;-72
2023/10/01 00:44:15;;;;;;;21.02;13.07;;;;;;;;;;2090126;28;20033;-72
2023/10/01 00:45:36;;;;;;;24.30;13.40;;;;;;;;;;2091728;28;20425;-72
2023/10/01 00:46:57;;;;;;;23.55;12.25;;;;;;;;;;2094153;28;20082;-72
2023/10/01 00:48:18;;;;;;;23.35;12.48;;;;;;;;;;2093165;28;20024;-72
2023/10/01 00:49:46;;;;;;;26.92;12.70;;;;;;;;;;2095692;28;20032;-72
2023/10/01 00:51:07;;;;;;;20.27;12.25;;;;;;;;;;2097571;28;20070;-72
2023/10/01 00:52:28;;;;;;;21.55;12.13;;;;;;;;;;2099724;28;20028;-72
2023/10/01 00:53:51;;;;;;;22.07;12.80;;;;;;;;;;2101272;28;20035;-72
2023/10/01 00:55:13;;;;;;;24.23;11.90;;;;;;;;;;2093508;28;20048;-72
2023/10/01 00:56:34;;;;;;;24.20;12.80;;;;;;;;;;2098320;28;20024;-72
2023/10/01 00:57:56;;;;;;;18.50;12.30;;;;;;;;;;2093760;28;20044;-71
2023/10/01 00:59:17;;;;;;;26.45;13.75;;;;;;;;;;2092842;28;20041;-72
2023/10/01 01:00:38;;;;;;;20.85;13.43;;;;;;;;;;2091617;28;20519;-72
2023/10/01 01:02:00;;;;;;;21.87;12.90;;;;;;;;;;2095033;28;20032;-71
2023/10/01 01:03:22;;;;;;;21.25;12.00;;;;;;;;;;2094954;28;20433;-71
2023/10/01 01:05:05;;;;;;;21.02;12.85;;;;;;;;;;2090159;28;20094;-72
2023/10/01 01:06:30;;;;;;;16.77;11.10;;;;;;;;;;2089000;28;20029;-71
2023/10/01 01:07:50;;;;;;;22.15;11.90;;;;;;;;;;2088528;28;20025;-72
2023/10/01 01:09:14;;;;;;;22.48;13.73;;;;;;;;;;2096085;28;20407;-71
2023/10/01 01:10:39;;;;;;;21.40;12.05;;;;;;;;;;2096855;28;20032;-71
2023/10/01 01:12:00;;;;;;;21.83;12.75;;;;;;;;;;2098614;28;20428;-72
2023/10/01 01:13:23;;;;;;;20.23;12.10;;;;;;;;;;2097180;28;20043;-71
2023/10/01 01:14:44;;;;;;;21.58;12.30;;;;;;;;;;2095072;28;20048;-71
2023/10/01 01:16:06;;;;;;;20.60;12.93;;;;;;;;;;2089921;28;23921;-71
2023/10/01 01:17:27;;;;;;;20.55;12.70;;;;;;;;;;2096503;28;20047;-71
2023/10/01 01:18:51;;;;;;;23.90;12.10;;;;;;;;;;2093807;28;20025;-71
2023/10/01 01:20:13;;;;;;;19.88;11.38;;;;;;;;;;2094306;28;20024;-71
2023/10/01 01:21:34;;;;;;;19.00;10.95;;;;;;;;;;2095541;28;20418;-71
2023/10/01 01:22:55;;;;;;;19.33;11.13;;;;;;;;;;2088351;28;20025;-72
2023/10/01 01:24:16;;;;;;;18.63;11.45;;;;;;;;;;2095809;28;20033;-71
2023/10/01 01:25:38;;;;;;;19.83;10.90;;;;;;;;;;2095720;28;20040;-71
2023/10/01 01:27:06;;;;;;;19.55;11.98;;;;;;;;;;2103026;28;20043;-71
2023/10/01 01:28:34;;;;;;;20.00;11.77;;;;;;;;;;2094435;28;20043;-72
2023/10/01 01:29:57;;;;;;;17.30;11.02;;;;;;;;;;2094182;28;20028;-71
2023/10/01 01:31:18;;;;;;;23.52;12.52;;;;;;;;;;2102727;28;20050;-71
2023/10/01 01:32:39;;;;;;;22.17;11.55;;;;;;;;;;2095369;28;20580;-73
2023/10/01 01:34:02;;;;;;;21.75;12.18;;;;;;;;;;2095537;28;20032;-71
2023/10/01 01:35:29;;;;;;;23.77;11.85;;;;;;;;;;2096818;28;20042;-71
2023/10/01 01:36:50;;;;;;;21.85;11.30;;;;;;;;;;2097510;28;20025;-71
2023/10/01 01:38:11;;;;;;;23.98;12.35;;;;;;;;;;2093588;28;20040;-71
2023/10/01 01:39:54;;;;;;;23.27;12.55;;;;;;;;;;2091670;28;20048;-71
2023/10/01 01:41:19;;;;;;;19.13;12.77;;;;;;;;;;2090117;28;20448;-71
2023/10/01 01:42:39;;;;;;;19.83;12.65;;;;;;;;;;2095482;28;20033;-72
2023/10/01 01:44:00;;;;;;;21.17;12.15;;;;;;;;;;2092873;28;20071;-72
2023/10/01 01:45:26;;;;;;;22.02;12.43;;;;;;;;;;2093603;28;20052;-71
2023/10/01 01:46:59;;;;;;;21.20;11.27;;;;;;;;;;2094275;28;20067;-71
2023/10/01 01:48:33;;;;;;;19.33;10.70;;;;;;;;;;2096820;28;20052;-71
2023/10/01 01:50:07;;;;;;;25.08;11.70;;;;;;;;;;2104266;28;20024;-71
2023/10/01 01:51:29;;;;;;;18.88;11.10;;;;;;;;;;2094025;28;20488;-71
2023/10/01 01:52:49;;;;;;;22.75;11.23;;;;;;;;;;2100725;28;20028;-71
2023/10/01 01:54:10;;;;;;;18.42;10.30;;;;;;;;;;2095157;28;20399;-71
2023/10/01 01:55:34;;;;;;;21.15;12.07;;;;;;;;;;2095248;28;20045;-71
2023/10/01 01:56:55;;;;;;;18.75;11.48;;;;;;;;;;2096549;28;20020;-71
2023/10/01 01:58:23;;;;;;;20.13;12.02;;;;;;;;;;2095545;28;20020;-71
2023/10/01 01:59:44;;;;;;;19.17;11.98;;;;;;;;;;2089008;28;20025;-71
2023/10/01 02:01:08;;;;;;;20.90;11.52;;;;;;;;;;2087960;28;20488;-71
2023/10/01 02:02:29;;;;;;;20.95;11.68;;;;;;;;;;2090136;28;20428;-71
2023/10/01 02:03:51;;;;;;;20.08;12.23;;;;;;;;;;2092851;28;20055;-71
2023/10/01 02:05:13;;;;;;;21.73;11.07;;;;;;;;;;2093742;28;20037;-71
2023/10/01 02:06:35;;;;;;;19.38;11.52;;;;;;;;;;2087896;28;20032;-71
2023/10/01 02:08:06;;;;;;;18.25;11.05;;;;;;;;;;2093848;28;20031;-72
2023/10/01 02:09:27;;;;;;;18.77;11.13;;;;;;;;;;2095884;28;20031;-71
2023/10/01 02:10:50;;;;;;;17.50;11.52;;;;;;;;;;2093439;28;20028;-71
2023/10/01 02:12:23;;;;;;;19.67;11.05;;;;;;;;;;2095627;28;20029;-72
2023/10/01 02:13:46;;;;;;;19.80;11.85;;;;;;;;;;2095906;28;20066;-72
2023/10/01 02:15:08;;;;;;;23.48;11.95;;;;;;;;;;2093282;28;20438;-72
2023/10/01 02:17:52;;;;;;;20.38;11.35;;;;;;;;;;2101546;28;20031;-72
2023/10/01 02:19:17;;;;;;;22.48;12.40;;;;;;;;;;2095783;28;20430;-73
2023/10/01 02:20:40;;;;;;;19.48;11.43;;;;;;;;;;2096110;28;20496;-73
2023/10/01 02:22:05;;;;;;;22.23;11.57;;;;;;;;;;2089227;28;20025;-72
2023/10/01 02:23:32;;;;;;;18.30;10.40;;;;;;;;;;2092729;28;20388;-72
2023/10/01 02:24:57;;;;;;;25.80;13.23;;;;;;;;;;2091400;28;20041;-72
2023/10/01 02:26:18;;;;;;;21.17;11.60;;;;;;;;;;2093291;28;20029;-72
2023/10/01 02:27:49;;;;;;;19.55;10.85;;;;;;;;;;2087913;28;20040;-72
2023/10/01 02:29:12;;;;;;;20.77;13.23;;;;;;;;;;2092827;28;20064;-73
2023/10/01 02:30:34;;;;;;;17.83;11.80;;;;;;;;;;2092667;28;20082;-72
2023/10/01 02:31:56;;;;;;;18.65;10.75;;;;;;;;;;2099081;28;20526;-72
2023/10/01 02:33:20;;;;;;;18.17;10.82;;;;;;;;;;2094331;28;20340;-72
2023/10/01 02:34:42;;;;;;;22.00;12.18;;;;;;;;;;2092291;28;20032;-72
2023/10/01 02:36:03;;;;;;;17.20;11.43;;;;;;;;;;2109667;28;20048;-72
2023/10/01 02:37:35;;;;;;;16.50;11.10;;;;;;;;;;2094551;28;20043;-73
2023/10/01 02:38:56;;;;;;;18.90;11.35;;;;;;;;;;2092754;28;20033;-72
2023/10/01 02:40:18;;;;;;;18.67;11.65;;;;;;;;;;2093892;28;20048;-72
2023/10/01 02:41:40;;;;;;;21.90;12.13;;;;;;;;;;2092439;28;20082;-73
2023/10/01 02:43:03;;;;;;;17.23;12.57;;;;;;;;;;2092102;28;20067;-72
2023/10/01 02:44:27;;;;;;;20.05;11.88;;;;;;;;;;2091383;28;20024;-72
2023/10/01 02:45:50;;;;;;;22.48;12.70;;;;;;;;;;2091644;28;20083;-72
2023/10/01 02:47:18;;;;;;;19.80;11.60;;;;;;;;;;2086453;28;20575;-72
2023/10/01 02:48:40;;;;;;;23.60;12.15;;;;;;;;;;2093679;28;20417;-73
2023/10/01 02:50:14;;;;;;;18.95;10.93;;;;;;;;;;2095186;28;20041;-73
2023/10/01 02:51:38;;;;;;;19.88;10.95;;;;;;;;;;2095805;28;20037;-73
2023/10/01 02:53:02;;;;;;;21.23;12.52;;;;;;;;;;2095582;28;20025;-72
2023/10/01 02:54:26;;;;;;;17.52;10.77;;;;;;;;;;2096938;28;20116;-72
2023/10/01 02:55:47;;;;;;;20.15;11.30;;;;;;;;;;2103220;28;20082;-72
2023/10/01 02:57:23;;;;;;;16.85;11.50;;;;;;;;;;2090543;28;20029;-72
2023/10/01 02:58:49;;;;;;;17.85;11.70;;;;;;;;;;2095037;28;20169;-72
2023/10/01 03:00:20;;;;;;;23.33;11.80;;;;;;;;;;2095645;28;20345;-72
2023/10/01 03:01:47;;;;;;;20.10;11.27;;;;;;;;;;2088949;28;20453;-72
2023/10/01 03:03:14;;;;;;;19.58;11.68;;;;;;;;;;2096852;28;20040;-73
2023/10/01 03:04:35;;;;;;;17.70;11.43;;;;;;;;;;2093074;28;20028;-73
2023/10/01 03:05:56;;;;;;;21.88;12.50;;;;;;;;;;2092718;28;20079;-72
2023/10/01 03:07:17;;;;;;;22.75;12.93;;;;;;;;;;2091890;28;20497;-72
2023/10/01 03:09:00;;;;;;;20.38;11.27;;;;;;;;;;2093438;28;20033;-72
2023/10/01 03:10:29;;;;;;;18.40;10.85;;;;;;;;;;2095474;28;20040;-72
2023/10/01 03:11:53;;;;;;;17.48;10.68;;;;;;;;;;2092005;28;20480;-72
2023/10/01 03:13:19;;;;;;;23.58;11.50;;;;;;;;;;2093925;28;20086;-72
2023/10/01 03:14:43;;;;;;;20.58;11.45;;;;;;;;;;2092545;28;20108;-72
2023/10/01 03:18:05;;;;;;;24.27;11.38;;;;;;;;;;2094650;28;20016;-72
2023/10/01 03:19:26;;;;;;;20.40;11.07;;;;;;;;;;2097952;28;20773;-73
2023/10/01 03:22:15;;;;;;;18.77;11.60;;;;;;;;;;2092765;28;20033;-74
2023/10/01 03:23:36;;;;;;;23.75;13.77;;;;;;;;;;2094737;28;20061;-74
2023/10/01 03:24:58;;;;;;;19.70;12.05;;;;;;;;;;2095037;28;20029;-74
2023/10/01 03:26:19;;;;;;;21.45;11.73;;;;;;;;;;2095353;28;20102;-74
2023/10/01 03:27:40;;;;;;;18.77;11.15;;;;;;;;;;2094241;28;20099;-73
2023/10/01 03:29:21;;;;;;;23.80;12.82;;;;;;;;;;2093951;28;20033;-74
2023/10/01 03:30:46;;;;;;;18.52;11.90;;;;;;;;;;2094876;28;20061;-74
2023/10/01 03:33:47;;;;;;;20.30;12.13;;;;;;;;;;2096024;28;20468;-74
2023/10/01 03:35:08;;;;;;;18.42;12.07;;;;;;;;;;2093185;28;20082;-73
2023/10/01 03:36:32;;;;;;;24.05;11.95;;;;;;;;;;2086931;28;20103;-74
2023/10/01 03:38:14;;;;;;;21.73;11.20;;;;;;;;;;2090906;28;20029;-74
2023/10/01 03:39:36;;;;;;;18.55;12.15;;;;;;;;;;2087595;28;20033;-74
2023/10/01 03:42:21;;;;;;;18.63;11.88;;;;;;;;;;2095987;28;20120;-75
2023/10/01 03:43:42;;;;;;;20.98;11.40;;;;;;;;;;2093112;28;20025;-74
2023/10/01 03:46:46;;;;;;;24.08;12.75;;;;;;;;;;2093213;28;20094;-74
2023/10/01 03:48:07;;;;;;;21.98;11.98;;;;;;;;;;2093825;28;20048;-74
2023/10/01 03:49:44;;;;;;;19.95;12.25;;;;;;;;;;2096954;28;20036;-74
2023/10/01 03:51:09;;;;;;;20.60;11.95;;;;;;;;;;2093561;28;20037;-74
2023/10/01 03:52:30;;;;;;;20.85;11.15;;;;;;;;;;2096238;28;20032;-73
2023/10/01 03:53:55;;;;;;;18.23;11.38;;;;;;;;;;2095976;28;20036;-73
2023/10/01 03:56:56;;;;;;;21.55;10.68;;;;;;;;;;2096336;28;20040;-74
2023/10/01 03:58:25;;;;;;;19.50;11.35;;;;;;;;;;2093485;28;20437;-74
2023/10/01 03:59:57;;;;;;;20.40;11.48;;;;;;;;;;2096036;28;20036;-74
2023/10/01 04:01:33;;;;;;;18.55;10.82;;;;;;;;;;2091115;28;20036;-74
2023/10/01 04:02:54;;;;;;;19.02;10.55;;;;;;;;;;2097417;28;20063;-74
2023/10/01 04:04:15;;;;;;;22.30;11.38;;;;;;;;;;2091139;28;20033;-74
2023/10/01 04:05:37;;;;;;;20.40;10.82;;;;;;;;;;2097019;28;20458;-74
2023/10/01 04:07:10;;;;;;;20.40;11.73;;;;;;;;;;2093896;28;21004;-74
2023/10/01 04:08:39;;;;;;;;;;;;;;;;;;2092109;28;20029;-73
2023/10/01 04:10:01;;;;;;;21.48;11.18;;;;;;;;;;2095370;28;19905;-74
2023/10/01 04:11:41;;;;;;;;;;;;;;;;;;2097391;28;20042;-74
2023/10/01 04:14:35;;;;;;;21.02;11.10;;;;;;;;;;2094721;28;20024;-74
2023/10/01 04:16:08;;;;;;;17.80;10.73;;;;;;;;;;2091499;28;20036;-73
2023/10/01 04:17:29;;;;;;;15.65;9.75;;;;;;;;;;2092773;28;20032;-74
2023/10/01 04:18:49;;;;;;;17.38;10.07;;;;;;;;;;2093603;28;20035;-74
2023/10/01 04:20:19;;;;;;;22.75;11.07;;;;;;;;;;2093466;28;20048;-74
2023/10/01 04:21:43;;;;;;;18.88;10.68;;;;;;;;;;2089104;28;20029;-74
2023/10/01 04:23:05;;;;;;;20.13;10.80;;;;;;;;;;2095208;28;20067;-73
2023/10/01 04:24:27;;;;;;;19.30;10.13;;;;;;;;;;2092305;28;20093;-74
2023/10/01 04:25:51;;;;;;;18.52;10.48;;;;;;;;;;2093108;28;20421;-74
2023/10/01 04:27:23;;;;;;;21.42;11.05;;;;;;;;;;2097290;28;20404;-73
2023/10/01 04:28:45;;;;;;;16.02;10.20;;;;;;;;;;2092825;28;20032;-74
2023/10/01 04:30:08;;;;;;;20.05;10.88;;;;;;;;;;2093904;28;20377;-74
2023/10/01 04:33:18;;;;;;;18.40;9.95;;;;;;;;;;2092249;28;20122;-73
2023/10/01 04:34:44;;;;;;;23.63;10.93;;;;;;;;;;2093870;28;20078;-73
2023/10/01 04:36:10;;;;;;;18.67;10.50;;;;;;;;;;2092497;28;20086;-73
2023/10/01 04:37:37;;;;;;;16.92;10.65;;;;;;;;;;2092750;28;20071;-73
2023/10/01 04:39:00;;;;;;;18.15;10.43;;;;;;;;;;2094819;28;20075;-72
2023/10/01 04:40:36;;;;;;;21.70;11.10;;;;;;;;;;2094838;28;20033;-73
2023/10/01 04:41:59;;;;;;;17.48;9.75;;;;;;;;;;2089062;28;20063;-73
2023/10/01 04:43:20;;;;;;;18.60;10.30;;;;;;;;;;2094072;28;20027;-72
2023/10/01 04:44:41;;;;;;;16.77;10.20;;;;;;;;;;2092083;28;20392;-72
2023/10/01 04:46:04;;;;;;;17.85;9.80;;;;;;;;;;2100796;28;20066;-73
2023/10/01 04:47:30;;;;;;;18.77;10.13;;;;;;;;;;2094210;28;20082;-72
2023/10/01 04:48:51;;;;;;;19.73;10.73;;;;;;;;;;2093632;28;20121;-72
2023/10/01 04:50:15;;;;;;;17.77;9.27;;;;;;;;;;2089678;28;20043;-72
2023/10/01 04:51:44;;;;;;;19.40;9.77;;;;;;;;;;2095369;28;20033;-72
2023/10/01 04:53:07;;;;;;;19.42;10.13;;;;;;;;;;2088571;28;20044;-73
2023/10/01 04:54:28;;;;;;;18.38;9.73;;;;;;;;;;2095534;28;20031;-72
2023/10/01 04:56:05;;;;;;;19.48;9.00;;;;;;;;;;2092513;28;20503;-72
2023/10/01 04:57:36;;;;;;;19.50;10.00;;;;;;;;;;2099460;28;20043;-73
2023/10/01 04:58:57;;;;;;;18.48;10.25;;;;;;;;;;2094823;28;20024;-73
2023/10/01 05:00:22;;;;;;;13.85;8.75;;;;;;;;;;2096419;28;20037;-72
2023/10/01 05:01:43;;;;;;;18.58;9.95;;;;;;;;;;2097197;28;20033;-72
2023/10/01 05:03:06;;;;;;;17.75;10.05;;;;;;;;;;2095318;28;20028;-72
2023/10/01 05:04:27;;;;;;;18.50;9.68;;;;;;;;;;2094631;28;20040;-72
2023/10/01 05:05:48;;;;;;;16.65;9.70;;;;;;;;;;2104498;28;20024;-72
2023/10/01 05:07:10;;;;;;;19.08;9.98;;;;;;;;;;2097937;28;20039;-72
2023/10/01 05:08:38;;;;;;;18.48;10.48;;;;;;;;;;2095795;28;20072;-73
2023/10/01 05:10:02;;;;;;;18.60;9.80;;;;;;;;;;2091000;28;20028;-73
2023/10/01 05:11:29;;;;;;;15.10;9.65;;;;;;;;;;2097087;28;20041;-72
2023/10/01 05:12:55;;;;;;;18.20;9.43;;;;;;;;;;2094803;28;20025;-72
2023/10/01 05:14:17;;;;;;;17.63;9.98;;;;;;;;;;2093362;28;20093;-72
2023/10/01 05:15:39;;;;;;;19.48;10.63;;;;;;;;;;2103634;28;20028;-73
2023/10/01 05:17:07;;;;;;;17.67;10.35;;;;;;;;;;2096661;28;20094;-72
2023/10/01 05:18:28;;;;;;;22.17;9.82;;;;;;;;;;2094020;28;20462;-72
2023/10/01 05:19:51;;;;;;;18.92;8.95;;;;;;;;;;2094486;28;20051;-73
2023/10/01 05:21:12;;;;;;;15.35;9.05;;;;;;;;;;2092812;28;20029;-72
2023/10/01 05:22:46;;;;;;;19.10;8.93;;;;;;;;;;2087725;28;20448;-72
2023/10/01 05:24:08;;;;;;;17.67;10.50;;;;;;;;;;2096225;28;20090;-72
2023/10/01 05:25:31;;;;;;;18.52;10.55;;;;;;;;;;2095977;28;20035;-73
2023/10/01 05:26:52;;;;;;;15.45;10.23;;;;;;;;;;2092688;28;20069;-73
2023/10/01 05:28:31;;;;;;;19.20;10.68;;;;;;;;;;2093324;28;20036;-72
2023/10/01 05:29:54;;;;;;;19.70;10.38;;;;;;;;;;2087163;28;20029;-73
2023/10/01 05:31:15;;;;;;;21.15;11.18;;;;;;;;;;2093346;28;20491;-74
2023/10/01 05:32:51;;;;;;;20.10;11.07;;;;;;;;;;2094089;28;20050;-72
2023/10/01 05:34:12;;;;;;;23.10;10.25;;;;;;;;;;2092720;28;20040;-73
2023/10/01 05:35:41;;;;;;;21.45;12.02;;;;;;;;;;2092640;28;20033;-74
2023/10/01 05:37:12;;;;;;;24.55;10.82;;;;;;;;;;2092482;28;20053;-73
2023/10/01 05:38:34;;;;;;;18.67;9.98;;;;;;;;;;2102588;28;20110;-73
2023/10/01 05:39:57;;;;;;;18.70;10.38;;;;;;;;;;2088362;28;20029;-72
2023/10/01 05:41:29;;;;;;;19.27;10.00;;;;;;;;;;2096247;28;20040;-72
2023/10/01 05:42:53;;;;;;;19.90;10.10;;;;;;;;;;2088624;28;20033;-72
2023/10/01 05:44:15;;;;;;;16.48;9.63;;;;;;;;;;2098861;28;20028;-73
2023/10/01 05:45:39;;;;;;;18.35;9.50;;;;;;;;;;2094655;28;20033;-72
2023/10/01 05:47:00;;;;;;;18.90;9.82;;;;;;;;;;2088956;28;20604;-73
2023/10/01 05:48:23;;;;;;;20.13;10.63;;;;;;;;;;2089706;28;20028;-73
2023/10/01 05:49:49;;;;;;;18.42;10.55;;;;;;;;;;2091700;28;20496;-73
2023/10/01 05:51:12;;;;;;;15.88;9.85;;;;;;;;;;2095313;28;20032;-73
2023/10/01 05:52:32;;;;;;;19.38;9.70;;;;;;;;;;2096694;28;20044;-73
2023/10/01 05:53:53;;;;;;;18.27;10.23;;;;;;;;;;2097054;28;20048;-73
2023/10/01 05:55:19;;;;;;;17.13;9.70;;;;;;;;;;2096475;28;20573;-73
2023/10/01 05:56:47;;;;;;;18.45;11.05;;;;;;;;;;2090404;28;20557;-72
2023/10/01 05:58:14;;;;;;;17.40;9.88;;;;;;;;;;2098243;28;20483;-73
2023/10/01 05:59:35;;;;;;;19.35;10.55;;;;;;;;;;2105628;28;20927;-72
2023/10/01 06:01:05;;;;;;;18.02;10.32;;;;;;;;;;2096108;28;20032;-73
2023/10/01 06:04:09;;;;;;;16.98;10.60;;;;;;;;;;2091919;28;20070;-73
2023/10/01 06:05:42;;;;;;;21.90;10.52;;;;;;;;;;2094164;28;20534;-72
2023/10/01 06:07:03;;;;;;;18.85;10.93;;;;;;;;;;2091735;28;20526;-73
2023/10/01 06:08:32;;;;;;;15.63;9.93;;;;;;;;;;2089203;28;20094;-73
2023/10/01 06:09:53;;;;;;;16.67;9.88;;;;;;;;;;2093978;28;20036;-73
2023/10/01 06:11:15;;;;;;;18.70;10.32;;;;;;;;;;2093911;28;20153;-72
2023/10/01 06:12:50;;;;;;;20.33;11.13;;;;;;;;;;2094197;28;20063;-72
2023/10/01 06:15:52;;;;;;;19.15;10.38;;;;;;;;;;2092282;28;20037;-72
2023/10/01 06:17:13;;;;;;;21.38;10.77;;;;;;;;;;2093300;28;20037;-72
2023/10/01 06:18:41;;;;;;;17.23;9.63;;;;;;;;;;2091433;28;20082;-72
2023/10/01 06:20:23;;;;;;;17.40;9.85;;;;;;;;;;2094018;28;20036;-72
2023/10/01 06:21:46;;;;;;;18.27;10.13;;;;;;;;;;2094569;28;20487;-72
2023/10/01 06:23:07;;;;;;;19.00;10.77;;;;;;;;;;2095079;28;20408;-73
2023/10/01 06:24:28;;;;;;;19.70;9.17;;;;;;;;;;2096579;28;20025;-72
2023/10/01 06:25:53;;;;;;;21.75;10.75;;;;;;;;;;2088925;28;20033;-73
2023/10/01 06:27:18;;;;;;;15.63;9.20;;;;;;;;;;2090292;28;20349;-74
2023/10/01 06:28:38;;;;;;;19.10;10.15;;;;;;;;;;2091558;28;20062;-72
2023/10/01 06:30:00;;;;;;;18.65;10.98;;;;;;;;;;2094113;28;20372;-72
2023/10/01 06:31:21;;;;;;;20.02;9.98;;;;;;;;;;2090660;28;20102;-72
2023/10/01 06:32:42;;;;;;;18.15;11.48;;;;;;;;;;2094674;28;20094;-72
2023/10/01 06:34:04;;;;;;;20.57;11.00;;;;;;;;;;2088348;28;20083;-72
2023/10/01 06:35:25;;;;;;;18.75;11.02;;;;;;;;;;2093704;28;20047;-72
2023/10/01 06:36:58;;;;;;;20.13;10.82;;;;;;;;;;2094080;28;20080;-71
2023/10/01 06:38:19;;;;;;;19.50;10.90;;;;;;;;;;2095343;28;20036;-72
2023/10/01 06:39:41;;;;;;;19.48;10.70;;;;;;;;;;2095021;28;20393;-72
2023/10/01 06:41:06;;;;;;;16.33;10.93;;;;;;;;;;2095628;28;20365;-72
2023/10/01 06:42:30;;;;;;;21.17;12.18;;;;;;;;;;2093017;28;20021;-72
2023/10/01 06:43:54;;;;;;;22.98;11.30;;;;;;;;;;2090455;28;20028;-72
2023/10/01 06:45:15;;;;;;;17.33;10.77;;;;;;;;;;2101154;28;20028;-72
2023/10/01 06:46:36;;;;;;;23.75;11.05;;;;;;;;;;2094812;28;20464;-73
2023/10/01 06:48:08;;;;;;;18.70;10.20;;;;;;;;;;2093211;28;20086;-73
2023/10/01 06:49:29;;;;;;;22.20;11.25;;;;;;;;;;2095227;28;20442;-73
2023/10/01 06:50:50;;;;;;;21.42;10.90;;;;;;;;;;2101885;28;20417;-73
2023/10/01 06:52:13;;;;;;;16.23;10.18;;;;;;;;;;2100193;28;20047;-73
2023/10/01 06:53:45;;;;;;;17.42;9.85;;;;;;;;;;2097242;28;20400;-75
2023/10/01 06:55:07;;;;;;;19.45;11.05;;;;;;;;;;2093456;28;20385;-75
2023/10/01 06:56:33;;;;;;;;;;;;;;;;;;2097234;28;20033;-75
2023/10/01 06:57:54;;;;;;;19.52;11.15;;;;;;;;;;2097346;28;19904;-74
2023/10/01 06:59:17;;;;;;;18.77;11.27;;;;;;;;;;2101868;28;20036;-74
2023/10/01 07:00:41;;;;;;;;;;;;;;;;;;2097082;28;20029;-75
2023/10/01 07:02:02;;;;;;;18.77;10.38;;;;;;;;;;2104326;27;19916;-72
2023/10/01 07:03:23;;;;;;;20.48;11.80;;;;;;;;;;2100889;28;20029;-75
2023/10/01 07:04:56;;;;;;;20.92;11.10;;;;;;;;;;2092742;28;20094;-77
2023/10/01 07:06:16;;;;;;;24.98;11.23;;;;;;;;;;2093895;28;20139;-76
2023/10/01 07:07:40;;;;;;;19.75;11.57;;;;;;;;;;2093849;28;20036;-73
2023/10/01 07:09:01;;;;;;;19.70;10.23;;;;;;;;;;2095721;28;20028;-77
2023/10/01 07:10:22;;;;;;;20.38;10.57;;;;;;;;;;2095913;28;20421;-76
2023/10/01 07:11:43;;;;;;;21.45;9.88;;;;;;;;;;2096296;28;20036;-76
2023/10/01 07:13:09;;;;;;;24.35;10.80;;;;;;;;;;2095268;28;20109;-73
2023/10/01 07:14:38;;;;;;;18.00;9.70;;;;;;;;;;2096061;28;20036;-77
2023/10/01 07:15:59;;;;;;;19.75;10.50;;;;;;;;;;2095175;28;20036;-75
2023/10/01 07:17:24;;;;;;;24.33;11.55;;;;;;;;;;2083330;28;20041;-77
2023/10/01 07:18:45;;;;;;;22.60;10.65;;;;;;;;;;2092707;28;20086;-77
2023/10/01 07:20:18;;;;;;;20.25;8.98;;;;;;;;;;2093098;28;20033;-76
2023/10/01 07:21:45;;;;;;;25.90;11.55;;;;;;;;;;2092142;28;20172;-76
2023/10/01 07:23:06;;;;;;;23.52;10.45;;;;;;;;;;2090578;28;20029;-76
2023/10/01 07:24:30;;;;;;;17.38;7.75;;;;;;;;;;2102704;28;20024;-76
2023/10/01 07:26:05;;;;;;;13.43;7.72;;;;;;;;;;2097469;28;20028;-76
2023/10/01 07:27:27;;;;;;;19.45;8.48;;;;;;;;;;2095146;28;20036;-75
2023/10/01 07:28:55;;;;;;;18.92;8.80;;;;;;;;;;2094973;28;20064;-75
2023/10/01 07:30:18;;;;;;;19.98;8.93;;;;;;;;;;2093152;28;20029;-76
2023/10/01 07:31:39;;;;;;;15.90;7.18;;;;;;;;;;2095671;28;20169;-76
2023/10/01 07:33:00;;;;;;;16.70;8.57;;;;;;;;;;2091701;28;20036;-76
2023/10/01 07:34:21;;;;;;;16.92;8.32;;;;;;;;;;2096383;28;20032;-75
2023/10/01 07:35:45;;;;;;;19.50;7.68;;;;;;;;;;2096507;28;20053;-74
2023/10/01 07:37:07;;;;;;;21.67;9.30;;;;;;;;;;2091503;28;20120;-75
2023/10/01 07:38:28;;;;;;;;;;;;;;;;;;2091954;28;20037;-76
2023/10/01 07:39:55;;;;;;;13.93;7.65;;;;;;;;;;2089112;28;20371;-72
2023/10/01 07:41:16;;;;;;;22.80;9.63;;;;;;;;;;2094514;28;20044;-75
2023/10/01 07:42:54;;;;;;;16.80;8.32;;;;;;;;;;2107222;28;20035;-76
2023/10/01 07:44:15;;;;;;;19.88;8.77;;;;;;;;;;2094071;28;20552;-75
2023/10/01 07:45:36;;;;;;;20.17;8.82;;;;;;;;;;2095059;28;20070;-75
2023/10/01 07:46:57;;;;;;;17.25;8.35;;;;;;;;;;2090162;28;20052;-76
2023/10/01 07:48:18;;;;;;;17.80;7.75;;;;;;;;;;2096514;28;21300;-76
2023/10/01 07:49:47;;;;;;;18.70;8.75;;;;;;;;;;2094435;28;20346;-75
2023/10/01 07:51:22;;;;;;;18.30;8.80;;;;;;;;;;2092218;28;20024;-76
2023/10/01 07:52:44;;;;;;;21.52;8.55;;;;;;;;;;2092307;28;20035;-75
2023/10/01 07:54:11;;;;;;;18.27;7.53;;;;;;;;;;2093775;28;20090;-78
2023/10/01 07:55:35;;;;;;;16.00;7.93;;;;;;;;;;2095355;28;20408;-76
2023/10/01 07:56:56;;;;;;;16.45;8.32;;;;;;;;;;2093457;28;20107;-76
2023/10/01 07:58:23;;;;;;;21.38;9.60;;;;;;;;;;2090102;28;20041;-76
2023/10/01 07:59:46;;;;;;;17.45;10.00;;;;;;;;;;2094753;28;20097;-74
2023/10/01 08:06:16;;;;;;;19.58;9.25;;;;;;;;;;2093402;28;20037;-74
2023/10/01 08:07:39;;;;;;;18.10;7.57;;;;;;;;;;2092953;28;20163;-75
2023/10/01 08:09:01;;;;;;;17.25;7.72;;;;;;;;;;2094783;28;20021;-73
2023/10/01 08:10:23;;;;;;;23.20;9.73;;;;;;;;;;2083421;28;20033;-73
2023/10/01 08:11:58;;;;;;;20.52;9.27;;;;;;;;;;2089214;28;20037;-74
2023/10/01 08:13:25;;;;;;;17.35;8.30;;;;;;;;;;2093214;28;21281;-73
2023/10/01 08:15:15;;;;;;;17.00;8.55;;;;;;;;;;2093453;28;20089;-74
2023/10/01 08:16:27;;;;;;;19.42;8.40;;;;;;;;;;2094799;28;20036;-73
2023/10/01 08:17:53;;;;;;;20.27;8.93;;;;;;;;;;2092268;28;20051;-73
2023/10/01 08:19:15;;;;;;;17.13;8.05;;;;;;;;;;2097854;28;20048;-74
2023/10/01 08:20:36;;;;;;;17.50;9.38;;;;;;;;;;2106753;28;20077;-73
2023/10/01 08:22:13;;;;;;;17.45;7.90;;;;;;;;;;2094063;28;20134;-73
2023/10/01 08:23:36;;;;;;;18.13;7.35;;;;;;;;;;2093957;28;20039;-74
2023/10/01 08:25:01;;;;;;;19.95;8.48;;;;;;;;;;2100333;28;20028;-73
2023/10/01 08:26:43;;;;;;;17.85;7.97;;;;;;;;;;2095339;28;20043;-73
2023/10/01 08:29:59;;;;;;;19.55;8.77;;;;;;;;;;2095549;28;20445;-73
2023/10/01 08:33:18;;;;;;;20.38;8.75;;;;;;;;;;2093748;28;20040;-73
2023/10/01 08:35:01;;;;;;;21.98;8.93;;;;;;;;;;2089864;28;20092;-73
2023/10/01 08:36:33;;;;;;;18.90;8.20;;;;;;;;;;2100182;27;20640;-72
2023/10/01 08:37:59;;;;;;;20.80;9.13;;;;;;;;;;2077704;28;20041;-75
2023/10/01 08:41:05;;;;;;;18.33;7.78;;;;;;;;;;2069278;28;20065;-73
2023/10/01 08:42:29;;;;;;;19.95;7.47;;;;;;;;;;2074533;28;20034;-73